Time;durP1;ratioP1;P1;durP2;ratioP2;P2;SDS_P1;SDS_P2;PMS_P1;PMS_P2;Temp;Humidity;BMP_temperature;BMP_pressure;BME280_temperature;BME280_humidity;BME280_pressure;Samples;Min_cycle;Max_cycle;Signal;HPM_P1;HPM_P2
2022/06/05 00:01:20;;;;;;;4.65;4.18;;;;;;;;;;5047746;28;20251;-74
2022/06/05 00:03:48;;;;;;;5.03;4.50;;;;;;;;;;5033987;28;20298;-75
2022/06/05 00:06:34;;;;;;;5.07;4.22;;;;;;;;;;5033946;28;20223;-75
2022/06/05 00:09:26;;;;;;;4.55;4.15;;;;;;;;;;5060869;28;20584;-76
2022/06/05 00:12:04;;;;;;;4.63;4.22;;;;;;;;;;5042359;28;20891;-75
2022/06/05 00:14:30;;;;;;;4.97;4.45;;;;;;;;;;5050221;28;20575;-75
2022/06/05 00:16:58;;;;;;;4.25;3.95;;;;;;;;;;5044753;28;20211;-75
2022/06/05 00:19:26;;;;;;;4.95;4.45;;;;;;;;;;5044307;28;20213;-75
2022/06/05 00:21:54;;;;;;;5.13;4.63;;;;;;;;;;5020875;28;20256;-75
2022/06/05 00:24:19;;;;;;;5.05;4.60;;;;;;;;;;5025509;28;20229;-75
2022/06/05 00:26:55;;;;;;;4.93;4.50;;;;;;;;;;5062627;28;20219;-75
2022/06/05 00:29:38;;;;;;;6.27;4.20;;;;;;;;;;5047988;28;20240;-74
2022/06/05 00:32:24;;;;;;;5.40;4.70;;;;;;;;;;5065443;28;20695;-74
2022/06/05 00:34:53;;;;;;;5.55;5.05;;;;;;;;;;5045760;28;20298;-75
2022/06/05 00:37:59;;;;;;;5.70;4.57;;;;;;;;;;5048494;28;20227;-75
2022/06/05 00:40:46;;;;;;;4.88;4.47;;;;;;;;;;5041290;28;20244;-76
2022/06/05 00:43:15;;;;;;;5.13;4.63;;;;;;;;;;5060180;28;20795;-75
2022/06/05 00:45:41;;;;;;;8.10;5.28;;;;;;;;;;4995415;28;20245;-75
2022/06/05 00:48:09;;;;;;;5.25;4.82;;;;;;;;;;5044184;28;20709;-75
2022/06/05 00:50:40;;;;;;;5.70;5.20;;;;;;;;;;5006870;28;20219;-75
2022/06/05 00:53:08;;;;;;;5.43;4.55;;;;;;;;;;5024571;28;20230;-76
2022/06/05 00:55:47;;;;;;;5.32;4.82;;;;;;;;;;5050971;28;20661;-75
2022/06/05 00:58:16;;;;;;;5.50;5.00;;;;;;;;;;5004959;28;20634;-76
2022/06/05 01:00:44;;;;;;;5.63;4.65;;;;;;;;;;5047577;28;20223;-74
2022/06/05 01:03:11;;;;;;;6.53;4.90;;;;;;;;;;5048820;28;20239;-75
2022/06/05 01:05:37;;;;;;;5.17;4.70;;;;;;;;;;5054427;28;20234;-75
2022/06/05 01:08:06;;;;;;;5.60;5.03;;;;;;;;;;5052766;28;20732;-75
2022/06/05 01:11:03;;;;;;;5.40;4.90;;;;;;;;;;5062223;28;20936;-75
2022/06/05 01:13:47;;;;;;;5.82;5.30;;;;;;;;;;5065268;28;20219;-75
2022/06/05 01:16:31;;;;;;;7.53;5.55;;;;;;;;;;5064915;28;20223;-75
2022/06/05 01:19:25;;;;;;;6.47;5.80;;;;;;;;;;5053220;28;20237;-75
2022/06/05 01:22:18;;;;;;;8.10;5.50;;;;;;;;;;5051069;28;20705;-75
2022/06/05 01:25:17;;;;;;;5.30;4.80;;;;;;;;;;5046484;28;20227;-75
2022/06/05 01:27:48;;;;;;;5.90;5.27;;;;;;;;;;5047323;28;20224;-75
2022/06/05 01:30:20;;;;;;;5.87;5.20;;;;;;;;;;5035112;28;20226;-75
2022/06/05 01:32:58;;;;;;;6.07;5.47;;;;;;;;;;5013608;28;20226;-75
2022/06/05 01:35:47;;;;;;;6.87;5.63;;;;;;;;;;5023579;28;20712;-75
2022/06/05 01:38:18;;;;;;;5.63;5.13;;;;;;;;;;5004231;28;20247;-75
2022/06/05 01:40:46;;;;;;;6.07;5.43;;;;;;;;;;5016681;28;20566;-76
2022/06/05 01:43:24;;;;;;;6.07;5.47;;;;;;;;;;5036459;28;20695;-74
2022/06/05 01:46:07;;;;;;;7.37;5.90;;;;;;;;;;5020154;28;20223;-75
2022/06/05 01:48:43;;;;;;;6.20;5.43;;;;;;;;;;5050309;28;20222;-75
2022/06/05 01:51:17;;;;;;;6.40;5.80;;;;;;;;;;5026766;28;20306;-73
2022/06/05 01:53:43;;;;;;;6.07;5.47;;;;;;;;;;5035689;28;20234;-75
2022/06/05 01:56:14;;;;;;;6.72;5.53;;;;;;;;;;5013188;28;20342;-76
2022/06/05 01:59:03;;;;;;;6.68;6.05;;;;;;;;;;5037537;28;20222;-75
2022/06/05 02:01:33;;;;;;;6.40;5.85;;;;;;;;;;5059780;28;20719;-75
2022/06/05 02:04:04;;;;;;;6.63;6.00;;;;;;;;;;5017070;28;20224;-74
2022/06/05 02:06:35;;;;;;;7.13;5.93;;;;;;;;;;5035490;28;20322;-75
2022/06/05 02:09:11;;;;;;;7.18;6.03;;;;;;;;;;4995626;28;20302;-76
2022/06/05 02:11:36;;;;;;;8.10;6.17;;;;;;;;;;5049398;28;20723;-75
2022/06/05 02:14:06;;;;;;;6.32;5.72;;;;;;;;;;5030822;28;20280;-74
2022/06/05 02:16:36;;;;;;;6.73;6.10;;;;;;;;;;5034494;28;20253;-74
2022/06/05 02:19:05;;;;;;;8.55;6.65;;;;;;;;;;5012394;28;20222;-75
2022/06/05 02:21:37;;;;;;;6.60;6.00;;;;;;;;;;5027266;28;20238;-75
2022/06/05 02:24:03;;;;;;;9.90;6.00;;;;;;;;;;5026345;28;20320;-76
2022/06/05 02:26:29;;;;;;;7.63;6.67;;;;;;;;;;5051730;28;20234;-76
2022/06/05 02:28:59;;;;;;;8.03;6.17;;;;;;;;;;5032757;28;20676;-74
2022/06/05 02:31:39;;;;;;;6.83;6.13;;;;;;;;;;5011443;28;20219;-74
2022/06/05 02:34:38;;;;;;;7.13;6.50;;;;;;;;;;5049629;28;20237;-75
2022/06/05 02:37:24;;;;;;;7.23;6.53;;;;;;;;;;5043815;28;20214;-75
2022/06/05 02:40:12;;;;;;;7.33;6.63;;;;;;;;;;5036280;28;20245;-75
2022/06/05 02:42:49;;;;;;;7.20;6.50;;;;;;;;;;5032144;28;20223;-76
2022/06/05 02:45:51;;;;;;;7.03;6.40;;;;;;;;;;5045856;28;20223;-75
2022/06/05 02:48:25;;;;;;;7.40;6.80;;;;;;;;;;5032024;28;20304;-75
2022/06/05 02:51:13;;;;;;;6.97;6.27;;;;;;;;;;5066189;28;20223;-76
2022/06/05 02:53:49;;;;;;;8.57;6.60;;;;;;;;;;5031983;28;20226;-75
2022/06/05 02:56:15;;;;;;;8.70;6.37;;;;;;;;;;5059123;28;20218;-75
2022/06/05 02:58:43;;;;;;;7.80;6.67;;;;;;;;;;5060443;28;20288;-75
2022/06/05 03:03:58;;;;;;;7.40;6.70;;;;;;;;;;5049089;28;20227;-74
2022/06/05 03:06:30;;;;;;;7.53;6.73;;;;;;;;;;5039123;28;20775;-75
2022/06/05 03:08:56;;;;;;;7.27;6.67;;;;;;;;;;5051819;28;20228;-75
2022/06/05 03:11:24;;;;;;;7.37;6.57;;;;;;;;;;5047498;28;21394;-75
2022/06/05 03:13:52;;;;;;;9.47;7.30;;;;;;;;;;5046339;28;20219;-75
2022/06/05 03:16:22;;;;;;;7.53;6.80;;;;;;;;;;5044237;28;20221;-74
2022/06/05 03:18:52;;;;;;;7.50;6.80;;;;;;;;;;5060878;28;20705;-75
2022/06/05 03:21:20;;;;;;;7.90;7.13;;;;;;;;;;5040947;28;20719;-75
2022/06/05 03:23:46;;;;;;;7.40;6.70;;;;;;;;;;5009766;28;20211;-75
2022/06/05 03:26:12;;;;;;;7.73;6.97;;;;;;;;;;5012084;28;20241;-73
2022/06/05 03:28:38;;;;;;;7.55;6.75;;;;;;;;;;5050851;28;20218;-75
2022/06/05 03:31:08;;;;;;;7.73;6.93;;;;;;;;;;5027634;28;20226;-76
2022/06/05 03:33:36;;;;;;;8.07;7.28;;;;;;;;;;5026438;28;20226;-75
2022/06/05 03:36:06;;;;;;;8.18;7.38;;;;;;;;;;5011911;28;20222;-76
2022/06/05 03:38:32;;;;;;;7.70;7.00;;;;;;;;;;5006109;28;20230;-75
2022/06/05 03:41:00;;;;;;;7.90;7.17;;;;;;;;;;5044621;28;20224;-75
2022/06/05 03:43:25;;;;;;;7.90;7.10;;;;;;;;;;5049454;28;20223;-75
2022/06/05 03:46:02;;;;;;;8.15;7.00;;;;;;;;;;5049207;28;20214;-77
2022/06/05 03:48:28;;;;;;;7.70;7.00;;;;;;;;;;5011599;28;20237;-75
2022/06/05 03:50:53;;;;;;;7.47;6.80;;;;;;;;;;5062867;28;20699;-75
2022/06/05 03:53:21;;;;;;;7.18;6.55;;;;;;;;;;5049744;28;20243;-75
2022/06/05 03:55:46;;;;;;;7.67;6.90;;;;;;;;;;5032952;28;20701;-75
2022/06/05 03:58:15;;;;;;;7.88;7.18;;;;;;;;;;5030433;28;20207;-75
2022/06/05 04:00:45;;;;;;;7.78;7.07;;;;;;;;;;5033867;28;20734;-75
2022/06/05 04:03:10;;;;;;;7.35;6.75;;;;;;;;;;5034009;28;20215;-75
2022/06/05 04:05:36;;;;;;;7.87;7.10;;;;;;;;;;5009654;28;20242;-76
2022/06/05 04:08:06;;;;;;;8.38;7.65;;;;;;;;;;5042323;28;20252;-76
2022/06/05 04:10:36;;;;;;;8.10;7.40;;;;;;;;;;5052236;28;20219;-75
2022/06/05 04:13:04;;;;;;;8.90;7.47;;;;;;;;;;5040585;28;20227;-75
2022/06/05 04:15:30;;;;;;;7.70;7.00;;;;;;;;;;5064204;28;20238;-74
2022/06/05 04:17:56;;;;;;;7.95;7.30;;;;;;;;;;5009428;28;20230;-75
2022/06/05 04:20:22;;;;;;;8.23;7.43;;;;;;;;;;5051074;28;20219;-75
2022/06/05 04:22:50;;;;;;;7.65;6.95;;;;;;;;;;5031446;28;20223;-76
2022/06/05 04:25:18;;;;;;;8.40;7.60;;;;;;;;;;5027450;28;20227;-74
2022/06/05 04:27:46;;;;;;;8.57;7.80;;;;;;;;;;5041808;28;20223;-75
2022/06/05 04:30:18;;;;;;;9.07;6.80;;;;;;;;;;5032774;28;20223;-74
2022/06/05 04:32:46;;;;;;;7.47;6.77;;;;;;;;;;5048769;28;20310;-75
2022/06/05 04:35:19;;;;;;;7.80;7.00;;;;;;;;;;5061645;28;20314;-74
2022/06/05 04:37:47;;;;;;;7.93;7.17;;;;;;;;;;5050649;28;20230;-75
2022/06/05 04:40:13;;;;;;;7.65;6.90;;;;;;;;;;5065286;28;20226;-75
2022/06/05 04:42:38;;;;;;;7.10;6.50;;;;;;;;;;5037589;28;20226;-74
2022/06/05 04:45:04;;;;;;;6.63;6.03;;;;;;;;;;5063584;28;20716;-76
2022/06/05 04:47:29;;;;;;;8.47;6.23;;;;;;;;;;5031720;28;20235;-75
2022/06/05 04:50:00;;;;;;;6.93;6.22;;;;;;;;;;5030920;28;20222;-75
2022/06/05 04:52:25;;;;;;;6.68;6.05;;;;;;;;;;5058179;28;20223;-76
2022/06/05 04:54:53;;;;;;;6.50;6.00;;;;;;;;;;5031547;28;20223;-75
2022/06/05 04:57:18;;;;;;;6.70;6.10;;;;;;;;;;5069487;28;20226;-76
2022/06/05 04:59:49;;;;;;;6.93;6.07;;;;;;;;;;5052249;28;20260;-74
2022/06/05 05:02:18;;;;;;;6.77;6.00;;;;;;;;;;5046757;28;20223;-74
2022/06/05 05:04:47;;;;;;;6.17;5.57;;;;;;;;;;5049899;28;20655;-75
2022/06/05 05:07:17;;;;;;;5.85;5.35;;;;;;;;;;5054589;28;20227;-78
2022/06/05 05:09:45;;;;;;;5.78;5.28;;;;;;;;;;5036198;28;20223;-75
2022/06/05 05:12:13;;;;;;;6.32;5.72;;;;;;;;;;5047994;28;20250;-75
2022/06/05 05:14:41;;;;;;;6.00;5.45;;;;;;;;;;5030110;28;20310;-74
2022/06/05 05:17:08;;;;;;;5.55;5.05;;;;;;;;;;5053431;28;20287;-75
2022/06/05 05:19:36;;;;;;;5.45;4.93;;;;;;;;;;5047475;28;20226;-75
2022/06/05 05:22:02;;;;;;;5.10;4.60;;;;;;;;;;5031843;28;20250;-75
2022/06/05 05:24:29;;;;;;;6.82;4.50;;;;;;;;;;5061105;28;20687;-75
2022/06/05 05:26:55;;;;;;;5.72;4.63;;;;;;;;;;5024321;28;20239;-75
2022/06/05 05:29:21;;;;;;;5.30;4.80;;;;;;;;;;5045412;28;20223;-76
2022/06/05 05:31:52;;;;;;;4.60;4.28;;;;;;;;;;5070899;28;20238;-75
2022/06/05 05:34:17;;;;;;;7.32;4.50;;;;;;;;;;5036820;28;20320;-76
2022/06/05 05:36:43;;;;;;;5.53;4.25;;;;;;;;;;5015351;28;20787;-74
2022/06/05 05:42:04;;;;;;;5.00;3.78;;;;;;;;;;5058784;28;20223;-73
2022/06/05 05:44:45;;;;;;;4.45;4.03;;;;;;;;;;5052000;28;20215;-74
2022/06/05 05:47:21;;;;;;;3.72;3.42;;;;;;;;;;5033626;28;20230;-74
2022/06/05 05:50:05;;;;;;;3.92;3.60;;;;;;;;;;5051252;28;20225;-73
2022/06/05 05:52:31;;;;;;;4.07;3.70;;;;;;;;;;5009748;28;20234;-73
2022/06/05 05:54:56;;;;;;;4.90;3.30;;;;;;;;;;5046784;28;20222;-75
2022/06/05 05:57:34;;;;;;;3.78;3.33;;;;;;;;;;4989181;28;20220;-74
2022/06/05 06:00:03;;;;;;;3.75;3.42;;;;;;;;;;5020501;28;20229;-75
2022/06/05 06:02:31;;;;;;;3.70;3.42;;;;;;;;;;5019545;28;20230;-74
2022/06/05 06:05:02;;;;;;;4.18;3.38;;;;;;;;;;5035465;28;20223;-74
2022/06/05 06:07:30;;;;;;;3.90;3.50;;;;;;;;;;5043822;28;20434;-75
2022/06/05 06:09:58;;;;;;;3.20;3.00;;;;;;;;;;5040301;28;20219;-75
2022/06/05 06:12:51;;;;;;;3.40;3.10;;;;;;;;;;5033885;28;20248;-73
2022/06/05 06:15:17;;;;;;;3.10;2.80;;;;;;;;;;5059698;28;20225;-73
2022/06/05 06:17:45;;;;;;;3.42;3.13;;;;;;;;;;5025742;28;20223;-73
2022/06/05 06:20:13;;;;;;;3.63;3.28;;;;;;;;;;5044002;28;20238;-73
2022/06/05 06:22:41;;;;;;;3.22;2.97;;;;;;;;;;5027844;28;20531;-74
2022/06/05 06:25:07;;;;;;;3.00;2.80;;;;;;;;;;5025553;28;20234;-74
2022/06/05 06:27:33;;;;;;;3.10;2.90;;;;;;;;;;5008015;28;20235;-74
2022/06/05 06:30:01;;;;;;;2.97;2.78;;;;;;;;;;5042138;28;20211;-74
2022/06/05 06:32:29;;;;;;;2.72;2.53;;;;;;;;;;5039926;28;20271;-74
2022/06/05 06:34:55;;;;;;;2.60;2.40;;;;;;;;;;5027345;28;20219;-75
2022/06/05 06:37:26;;;;;;;3.20;2.90;;;;;;;;;;5010767;28;20249;-73
2022/06/05 06:39:59;;;;;;;2.78;2.55;;;;;;;;;;5025255;28;20219;-74
2022/06/05 06:42:25;;;;;;;2.50;2.30;;;;;;;;;;5042140;28;20653;-76
2022/06/05 06:44:50;;;;;;;2.70;2.30;;;;;;;;;;5039342;28;20218;-75
2022/06/05 06:47:16;;;;;;;3.40;2.50;;;;;;;;;;5024863;28;20238;-74
2022/06/05 06:49:41;;;;;;;2.63;2.42;;;;;;;;;;5042086;28;20222;-75
2022/06/05 06:52:10;;;;;;;3.53;2.72;;;;;;;;;;5036047;28;21119;-72
2022/06/05 06:54:37;;;;;;;2.70;2.50;;;;;;;;;;5015596;28;20235;-73
2022/06/05 06:57:03;;;;;;;2.55;2.35;;;;;;;;;;4990256;28;20241;-74
2022/06/05 06:59:29;;;;;;;2.85;2.65;;;;;;;;;;5024037;28;20428;-73
2022/06/05 07:01:58;;;;;;;4.18;2.50;;;;;;;;;;5007057;28;20226;-75
2022/06/05 07:04:24;;;;;;;2.67;2.47;;;;;;;;;;5009298;28;20218;-75
2022/06/05 07:06:51;;;;;;;2.90;2.55;;;;;;;;;;4988056;28;20231;-74
2022/06/05 07:09:17;;;;;;;2.90;2.50;;;;;;;;;;4986958;28;20631;-73
2022/06/05 07:12:32;;;;;;;2.55;2.35;;;;;;;;;;5000097;28;20219;-74
2022/06/05 07:15:01;;;;;;;2.50;2.30;;;;;;;;;;4977782;28;20244;-74
2022/06/05 07:18:01;;;;;;;2.88;2.53;;;;;;;;;;4961416;28;20214;-73
2022/06/05 07:20:30;;;;;;;2.67;2.35;;;;;;;;;;5003987;28;20591;-76
2022/06/05 07:23:02;;;;;;;2.60;2.30;;;;;;;;;;4985631;28;20231;-74
2022/06/05 07:25:29;;;;;;;2.67;2.47;;;;;;;;;;5008310;28;20230;-74
2022/06/05 07:27:57;;;;;;;2.25;2.00;;;;;;;;;;4992122;28;20352;-73
2022/06/05 07:30:24;;;;;;;2.60;2.40;;;;;;;;;;5008723;28;20739;-74
2022/06/05 07:33:10;;;;;;;2.88;2.50;;;;;;;;;;5048230;28;20621;-73
2022/06/05 07:36:26;;;;;;;2.63;2.30;;;;;;;;;;5004205;28;20607;-74
2022/06/05 07:39:44;;;;;;;2.03;1.90;;;;;;;;;;4996377;28;20652;-74
2022/06/05 07:42:41;;;;;;;3.90;2.35;;;;;;;;;;5026592;28;20280;-73
2022/06/05 07:45:21;;;;;;;2.40;2.20;;;;;;;;;;5035255;28;20226;-76
2022/06/05 07:48:04;;;;;;;3.08;2.60;;;;;;;;;;4991599;28;20251;-76
2022/06/05 07:57:05;;;;;;;2.42;2.15;;;;;;;;;;4986290;28;20229;-75
2022/06/05 07:59:33;;;;;;;2.42;2.22;;;;;;;;;;4995055;28;20251;-74
2022/06/05 08:02:03;;;;;;;2.45;2.25;;;;;;;;;;4986178;28;20236;-74
2022/06/05 08:04:30;;;;;;;2.50;2.30;;;;;;;;;;4971835;28;20237;-74
2022/06/05 08:06:57;;;;;;;3.90;2.30;;;;;;;;;;4973896;28;20782;-73
2022/06/05 08:09:23;;;;;;;2.60;2.30;;;;;;;;;;4967936;28;20232;-74
2022/06/05 08:11:50;;;;;;;2.47;2.28;;;;;;;;;;4967467;28;20229;-74
2022/06/05 08:14:16;;;;;;;3.55;2.40;;;;;;;;;;4971163;28;20217;-74
2022/06/05 08:16:43;;;;;;;3.75;2.20;;;;;;;;;;4972519;28;20232;-75
2022/06/05 08:19:15;;;;;;;2.70;2.28;;;;;;;;;;4968317;28;20225;-78
2022/06/05 08:21:47;;;;;;;2.20;2.00;;;;;;;;;;4956342;28;20228;-76
2022/06/05 08:24:14;;;;;;;2.63;2.40;;;;;;;;;;4975459;28;20283;-76
2022/06/05 08:26:40;;;;;;;3.00;2.40;;;;;;;;;;4974144;28;20225;-76
2022/06/05 08:29:09;;;;;;;5.22;2.30;;;;;;;;;;4984774;28;20296;-76
2022/06/05 08:31:36;;;;;;;2.70;2.13;;;;;;;;;;4969599;28;20231;-75
2022/06/05 08:34:04;;;;;;;2.97;2.20;;;;;;;;;;4984625;28;20225;-76
2022/06/05 08:36:31;;;;;;;2.30;2.10;;;;;;;;;;4952332;28;20252;-76
2022/06/05 08:41:51;;;;;;;3.13;2.40;;;;;;;;;;4987895;28;20224;-76
2022/06/05 08:44:33;;;;;;;2.88;2.10;;;;;;;;;;4982600;28;20314;-75
2022/06/05 08:47:06;;;;;;;2.30;2.10;;;;;;;;;;4982480;28;20282;-76
2022/06/05 08:49:42;;;;;;;2.40;2.28;;;;;;;;;;4950527;28;20235;-76
2022/06/05 08:52:18;;;;;;;2.78;2.47;;;;;;;;;;4982362;28;20224;-77
2022/06/05 08:55:15;;;;;;;2.17;2.00;;;;;;;;;;4968306;28;20221;-75
2022/06/05 08:57:50;;;;;;;4.15;2.00;;;;;;;;;;4970971;28;20225;-76
2022/06/05 09:00:24;;;;;;;2.20;1.90;;;;;;;;;;4971519;28;20312;-76
2022/06/05 09:03:13;;;;;;;3.45;2.28;;;;;;;;;;4969553;28;20228;-76
2022/06/05 09:05:56;;;;;;;2.75;2.05;;;;;;;;;;4970013;28;20248;-77
2022/06/05 09:08:26;;;;;;;2.22;2.03;;;;;;;;;;4967545;28;20233;-74
2022/06/05 09:10:57;;;;;;;3.15;2.33;;;;;;;;;;4950355;28;20259;-78
2022/06/05 09:13:48;;;;;;;2.30;2.08;;;;;;;;;;4962014;28;20236;-76
2022/06/05 09:16:23;;;;;;;2.40;2.20;;;;;;;;;;4980097;28;20220;-76
2022/06/05 09:18:50;;;;;;;2.83;2.00;;;;;;;;;;4980627;28;20668;-76
2022/06/05 09:21:31;;;;;;;2.22;2.03;;;;;;;;;;4968221;28;20236;-75
2022/06/05 09:24:14;;;;;;;2.10;2.00;;;;;;;;;;4984816;28;20821;-75
2022/06/05 09:26:44;;;;;;;2.25;2.10;;;;;;;;;;4952089;28;20609;-77
2022/06/05 09:29:50;;;;;;;2.22;2.03;;;;;;;;;;4984217;28;20267;-75
2022/06/05 09:32:28;;;;;;;2.50;2.30;;;;;;;;;;4983596;28;20232;-74
2022/06/05 09:35:02;;;;;;;3.30;2.30;;;;;;;;;;4998219;28;20303;-76
2022/06/05 09:37:57;;;;;;;4.38;2.42;;;;;;;;;;4969344;28;20282;-75
2022/06/05 09:40:32;;;;;;;2.67;2.25;;;;;;;;;;4983083;28;20307;-76
2022/06/05 09:43:04;;;;;;;2.35;2.15;;;;;;;;;;4964621;28;20737;-75
2022/06/05 09:45:40;;;;;;;2.40;2.20;;;;;;;;;;4989390;28;20255;-74
2022/06/05 09:48:58;;;;;;;2.47;2.15;;;;;;;;;;5000187;28;20289;-74
2022/06/05 09:51:24;;;;;;;2.55;2.25;;;;;;;;;;4945774;28;20224;-75
2022/06/05 09:54:01;;;;;;;2.40;2.20;;;;;;;;;;4986393;28;20240;-75
2022/06/05 10:00:15;;;;;;;2.53;2.05;;;;;;;;;;5002169;28;20632;-76
2022/06/05 10:02:46;;;;;;;2.10;2.00;;;;;;;;;;4987642;28;20702;-76
2022/06/05 10:05:24;;;;;;;2.25;2.13;;;;;;;;;;4960405;28;20252;-74
2022/06/05 10:07:53;;;;;;;2.55;2.35;;;;;;;;;;4952675;28;20407;-75
2022/06/05 10:10:26;;;;;;;2.63;2.42;;;;;;;;;;4963613;28;20224;-76
2022/06/05 10:13:19;;;;;;;2.20;2.00;;;;;;;;;;4970319;28;20276;-76
2022/06/05 10:15:52;;;;;;;2.67;2.47;;;;;;;;;;4968376;28;20221;-76
2022/06/05 10:18:32;;;;;;;2.60;2.40;;;;;;;;;;4985310;28;20607;-75
2022/06/05 10:21:09;;;;;;;2.30;2.20;;;;;;;;;;5000077;28;20236;-77
2022/06/05 10:24:10;;;;;;;2.65;2.17;;;;;;;;;;4962901;28;20228;-77
2022/06/05 10:26:37;;;;;;;2.67;2.47;;;;;;;;;;4970820;28;20596;-77
2022/06/05 10:29:11;;;;;;;2.60;2.40;;;;;;;;;;4979430;28;20490;-74
2022/06/05 10:31:40;;;;;;;2.92;2.63;;;;;;;;;;4966503;28;20302;-75
2022/06/05 10:34:20;;;;;;;2.63;2.42;;;;;;;;;;4950121;28;20221;-73
2022/06/05 10:37:17;;;;;;;2.65;2.45;;;;;;;;;;4965444;28;20220;-74
2022/06/05 10:39:53;;;;;;;2.35;2.20;;;;;;;;;;4965045;28;20721;-76
2022/06/05 10:42:52;;;;;;;2.47;2.28;;;;;;;;;;4981069;28;20224;-74
2022/06/05 10:45:47;;;;;;;2.35;2.10;;;;;;;;;;4996850;28;21590;-76
2022/06/05 10:48:34;;;;;;;3.28;2.42;;;;;;;;;;5012123;28;20236;-76
2022/06/05 10:51:23;;;;;;;4.53;2.38;;;;;;;;;;4976669;28;20236;-76
2022/06/05 10:54:14;;;;;;;3.83;2.30;;;;;;;;;;4984150;28;20800;-75
2022/06/05 10:57:01;;;;;;;3.15;2.10;;;;;;;;;;4982833;28;20221;-75
2022/06/05 11:00:02;;;;;;;3.30;2.05;;;;;;;;;;4977150;28;20224;-76
2022/06/05 11:03:05;;;;;;;2.60;2.30;;;;;;;;;;4982301;28;20281;-74
2022/06/05 11:06:04;;;;;;;2.55;2.35;;;;;;;;;;4985648;28;20224;-76
2022/06/05 11:08:51;;;;;;;2.40;2.20;;;;;;;;;;4980932;28;20229;-74
2022/06/05 11:14:46;;;;;;;2.17;2.08;;;;;;;;;;4987014;28;20255;-74
2022/06/05 11:17:18;;;;;;;2.40;2.20;;;;;;;;;;4952556;28;20208;-75
2022/06/05 11:20:10;;;;;;;2.58;2.38;;;;;;;;;;4997125;28;21231;-75
2022/06/05 11:22:38;;;;;;;2.50;2.30;;;;;;;;;;4967752;28;20232;-74
2022/06/05 11:25:22;;;;;;;2.40;2.20;;;;;;;;;;4957028;28;20311;-74
2022/06/05 11:27:51;;;;;;;2.42;2.22;;;;;;;;;;4935401;28;20236;-74
2022/06/05 11:30:36;;;;;;;2.75;2.55;;;;;;;;;;4955317;28;20221;-75
2022/06/05 11:33:14;;;;;;;2.92;2.28;;;;;;;;;;4964948;28;20590;-77
2022/06/05 11:35:50;;;;;;;3.28;2.50;;;;;;;;;;4965573;28;20232;-74
2022/06/05 11:38:31;;;;;;;2.63;2.42;;;;;;;;;;4980615;28;20239;-74
2022/06/05 11:41:00;;;;;;;2.38;2.15;;;;;;;;;;4973977;28;20220;-73
2022/06/05 11:43:36;;;;;;;4.30;2.60;;;;;;;;;;4993979;28;20764;-76
2022/06/05 11:46:11;;;;;;;3.45;2.17;;;;;;;;;;4967664;28;20216;-74
2022/06/05 11:48:54;;;;;;;3.45;2.13;;;;;;;;;;4983940;28;20604;-74
2022/06/05 11:51:30;;;;;;;2.30;2.10;;;;;;;;;;4982141;28;20644;-76
2022/06/05 11:54:17;;;;;;;2.17;1.98;;;;;;;;;;4978733;28;20224;-75
2022/06/05 11:56:59;;;;;;;2.60;2.22;;;;;;;;;;4985750;28;20216;-75
2022/06/05 11:59:52;;;;;;;2.63;2.20;;;;;;;;;;4965675;28;20635;-73
2022/06/05 12:02:31;;;;;;;3.67;2.33;;;;;;;;;;4981860;28;20275;-75
2022/06/05 12:05:02;;;;;;;2.63;2.20;;;;;;;;;;4951325;28;20222;-76
2022/06/05 12:07:28;;;;;;;2.70;2.50;;;;;;;;;;4982388;28;20312;-75
2022/06/05 12:10:23;;;;;;;2.20;2.10;;;;;;;;;;4985045;28;20248;-73
2022/06/05 12:13:15;;;;;;;2.55;2.35;;;;;;;;;;4965327;28;20232;-74
2022/06/05 12:16:06;;;;;;;2.53;2.08;;;;;;;;;;4990545;28;20267;-75
2022/06/05 12:18:36;;;;;;;2.38;2.20;;;;;;;;;;4990971;28;20228;-74
2022/06/05 12:21:09;;;;;;;2.25;2.10;;;;;;;;;;4999042;28;20229;-75
2022/06/05 12:23:46;;;;;;;3.85;2.17;;;;;;;;;;4984559;28;20723;-75
2022/06/05 12:26:17;;;;;;;3.63;2.30;;;;;;;;;;4979077;28;20225;-76
2022/06/05 12:28:52;;;;;;;2.60;2.40;;;;;;;;;;4982404;28;20233;-75
2022/06/05 12:31:23;;;;;;;2.42;2.30;;;;;;;;;;4977708;28;20714;-76
2022/06/05 12:33:57;;;;;;;2.38;2.13;;;;;;;;;;4981910;28;20737;-75
2022/06/05 12:36:36;;;;;;;2.40;2.20;;;;;;;;;;4966233;28;20232;-75
2022/06/05 12:39:18;;;;;;;2.80;2.45;;;;;;;;;;4999820;28;20606;-74
2022/06/05 12:42:02;;;;;;;2.47;2.28;;;;;;;;;;4998118;28;20284;-73
2022/06/05 12:44:32;;;;;;;2.53;2.30;;;;;;;;;;4984245;28;20583;-77
2022/06/05 12:47:04;;;;;;;3.05;2.40;;;;;;;;;;4968202;28;21006;-76
2022/06/05 12:49:57;;;;;;;2.30;2.20;;;;;;;;;;4982694;28;20221;-73
2022/06/05 12:52:27;;;;;;;3.08;2.50;;;;;;;;;;4966910;28;20236;-76
2022/06/05 12:55:12;;;;;;;2.60;2.40;;;;;;;;;;4982880;28;20307;-74
2022/06/05 12:57:44;;;;;;;3.45;2.25;;;;;;;;;;4982761;28;20912;-75
2022/06/05 13:00:44;;;;;;;2.60;2.38;;;;;;;;;;4981203;28;20239;-73
2022/06/05 13:03:40;;;;;;;2.80;2.60;;;;;;;;;;4973337;28;20766;-74
2022/06/05 13:06:14;;;;;;;2.60;2.40;;;;;;;;;;4977537;28;20674;-74
2022/06/05 13:08:59;;;;;;;5.10;2.40;;;;;;;;;;4978899;28;20233;-75
2022/06/05 13:11:34;;;;;;;2.72;2.53;;;;;;;;;;4978536;28;20814;-73
2022/06/05 13:14:40;;;;;;;2.60;2.40;;;;;;;;;;4983801;28;20286;-75
2022/06/05 13:17:11;;;;;;;4.38;2.40;;;;;;;;;;4982216;28;20252;-75
2022/06/05 13:19:41;;;;;;;2.30;2.20;;;;;;;;;;4989408;28;20235;-75
2022/06/05 13:22:21;;;;;;;2.70;2.50;;;;;;;;;;4980947;28;20829;-74
2022/06/05 13:25:09;;;;;;;2.83;2.63;;;;;;;;;;5003423;28;20228;-74
2022/06/05 13:27:48;;;;;;;2.80;2.50;;;;;;;;;;4985168;28;20229;-74
2022/06/05 13:30:18;;;;;;;2.80;2.50;;;;;;;;;;4981349;28;20759;-76
2022/06/05 13:33:09;;;;;;;2.70;2.50;;;;;;;;;;4970510;28;20316;-74
2022/06/05 13:35:48;;;;;;;2.22;2.05;;;;;;;;;;5000689;28;20217;-75
2022/06/05 13:38:34;;;;;;;2.60;2.40;;;;;;;;;;4985149;28;20609;-74
2022/06/05 13:41:23;;;;;;;2.65;2.45;;;;;;;;;;4993322;28;20675;-75
2022/06/05 13:44:20;;;;;;;2.72;2.50;;;;;;;;;;4954377;28;20225;-73
2022/06/05 13:47:26;;;;;;;3.25;2.63;;;;;;;;;;4969397;28;20272;-75
2022/06/05 13:50:28;;;;;;;2.50;2.30;;;;;;;;;;4984760;28;20248;-73
2022/06/05 13:53:18;;;;;;;2.63;2.40;;;;;;;;;;5001867;28;20618;-74
2022/06/05 13:55:47;;;;;;;4.07;2.58;;;;;;;;;;4954777;28;20220;-74
2022/06/05 13:58:26;;;;;;;2.90;2.70;;;;;;;;;;4981827;28;20800;-74
2022/06/05 14:01:05;;;;;;;3.20;2.53;;;;;;;;;;4992581;28;20228;-73
2022/06/05 14:03:38;;;;;;;2.65;2.45;;;;;;;;;;4968857;28;20293;-75
2022/06/05 14:06:26;;;;;;;2.95;2.75;;;;;;;;;;4976286;28;20224;-75
2022/06/05 14:08:57;;;;;;;3.28;2.67;;;;;;;;;;4987175;28;20225;-75
2022/06/05 14:11:34;;;;;;;2.88;2.63;;;;;;;;;;4970778;28;20292;-75
2022/06/05 14:14:05;;;;;;;3.00;2.75;;;;;;;;;;4985468;28;20233;-75
2022/06/05 14:16:43;;;;;;;2.97;2.65;;;;;;;;;;4959989;28;20213;-75
2022/06/05 14:19:29;;;;;;;2.78;2.53;;;;;;;;;;4983862;28;20610;-76
2022/06/05 14:22:03;;;;;;;2.80;2.60;;;;;;;;;;4983972;28;20221;-73
2022/06/05 14:24:35;;;;;;;3.00;2.80;;;;;;;;;;4955296;28;20319;-77
2022/06/05 14:27:04;;;;;;;3.03;2.63;;;;;;;;;;4970613;28;20259;-76
2022/06/05 14:29:46;;;;;;;2.70;2.50;;;;;;;;;;4984213;28;20228;-75
2022/06/05 14:32:12;;;;;;;3.60;2.80;;;;;;;;;;4983265;28;20228;-77
2022/06/05 14:34:44;;;;;;;2.60;2.40;;;;;;;;;;4987289;28;20276;-75
2022/06/05 14:37:22;;;;;;;4.25;2.67;;;;;;;;;;4970236;28;20213;-75
2022/06/05 14:39:49;;;;;;;2.55;2.35;;;;;;;;;;4967674;28;20220;-75
2022/06/05 14:42:26;;;;;;;3.40;2.40;;;;;;;;;;4978831;28;20315;-75
2022/06/05 14:44:57;;;;;;;2.90;2.70;;;;;;;;;;4967199;28;20228;-77
2022/06/05 14:47:30;;;;;;;3.17;2.67;;;;;;;;;;4968506;28;20292;-75
2022/06/05 14:50:04;;;;;;;2.92;2.72;;;;;;;;;;4964987;28;20225;-74
2022/06/05 14:52:57;;;;;;;2.83;2.60;;;;;;;;;;4986576;28;20236;-75
2022/06/05 14:59:00;;;;;;;2.95;2.65;;;;;;;;;;4988643;28;20232;-74
2022/06/05 15:01:38;;;;;;;3.67;2.50;;;;;;;;;;4986967;28;20237;-77
2022/06/05 15:04:34;;;;;;;3.25;2.70;;;;;;;;;;4986012;28;20292;-74
2022/06/05 15:07:23;;;;;;;2.63;2.42;;;;;;;;;;4986679;28;20533;-75
2022/06/05 15:10:15;;;;;;;4.30;2.67;;;;;;;;;;4992333;28;20272;-76
2022/06/05 15:12:48;;;;;;;2.80;2.60;;;;;;;;;;4998794;28;20239;-74
2022/06/05 15:15:22;;;;;;;2.70;2.50;;;;;;;;;;4984386;28;20713;-74
2022/06/05 15:17:56;;;;;;;3.90;2.53;;;;;;;;;;4971988;28;20221;-74
2022/06/05 15:20:42;;;;;;;3.42;2.70;;;;;;;;;;4969068;28;20713;-74
2022/06/05 15:23:38;;;;;;;2.72;2.53;;;;;;;;;;5008055;28;20971;-72
2022/06/05 15:26:17;;;;;;;2.75;2.55;;;;;;;;;;4982792;28;20901;-71
2022/06/05 15:29:01;;;;;;;3.60;2.45;;;;;;;;;;4950660;28;20601;-76
2022/06/05 15:31:37;;;;;;;4.85;2.65;;;;;;;;;;4960224;28;20307;-72
2022/06/05 15:34:25;;;;;;;2.53;2.33;;;;;;;;;;4947848;28;20226;-73
2022/06/05 15:37:01;;;;;;;3.85;2.22;;;;;;;;;;4984474;28;20216;-75
2022/06/05 15:39:31;;;;;;;3.05;2.40;;;;;;;;;;4994020;28;20240;-77
2022/06/05 15:42:13;;;;;;;3.40;2.50;;;;;;;;;;4969513;28;20225;-71
2022/06/05 15:44:54;;;;;;;2.13;1.92;;;;;;;;;;4995049;28;21253;-75
2022/06/05 15:47:20;;;;;;;2.53;2.33;;;;;;;;;;4997469;28;20233;-78
2022/06/05 15:49:54;;;;;;;2.47;2.28;;;;;;;;;;4984017;28;20755;-74
2022/06/05 15:52:20;;;;;;;2.58;2.38;;;;;;;;;;4981942;28;20228;-75
2022/06/05 15:55:00;;;;;;;2.88;2.60;;;;;;;;;;4980386;28;20248;-76
2022/06/05 16:00:31;;;;;;;2.35;2.25;;;;;;;;;;4981600;28;20308;-74
2022/06/05 16:02:59;;;;;;;2.50;2.30;;;;;;;;;;4949481;28;20251;-74